Main page
METAR-TAF:

METAR-TAF

Airports :

Aérodrome de Dax - Seyresse

Dax, France

latitude: 43-41N, longitude: 001-04W, elevation: 32 m

Current weather observation

The report was made 25 minutes ago, at 16:30 UTC
Calm wind
Temperature 17°C
Humidity 82%
Pressure 1005 hPa
Visibility 10 km or more

METAR: LFBY 231630Z AUTO 00000KT 9999 // ///TCU 17/14 Q1005

Time: 18:55 (16:55 UTC)

Forecast

The report was made 8 hours and 55 minutes ago, at 08:00 UTC
Forecast valid from 23 at 09 UTC to 23 at 18 UTC
Wind 2 kt from variable directions
Visibility: 4000 m
Broken clouds at a height of 300 ft
mist
Becoming
from 23 at 10 UTC to 23 at 12 UTC
Visibility 10 km or more
Broken clouds at a height of 2000 ft

TAF: LFBY 230800Z 2309/2318 VRB02KT 4000 BR BKN003 BECMG 2310/2312 9999 NSW BKN020

Weather observations and forecasts of more than 4000 airports (METAR and TAF reports).

The available stations are represented by yellow and red dots on the map.

Hover mouse over dot to see the name of the station.

Then click to see weather observations and forecasts.

To change the map : click on the green buttons with a black cross to zoom in, on the green button with a dash to zoom out, or on the green arrows for adjacent maps.


METAR-TAF: